createdAt,value
2022-10-30T00:00:55.309Z,10.07
2022-10-30T00:05:58.060Z,9.82
2022-10-30T00:11:06.547Z,8.30
2022-10-30T00:16:11.050Z,9.35
2022-10-30T00:21:16.280Z,9.68
2022-10-30T00:26:20.861Z,8.55
2022-10-30T00:31:25.203Z,8.45
2022-10-30T00:36:27.970Z,8.07
2022-10-30T00:41:30.875Z,8.48
2022-10-30T00:46:38.715Z,7.80
2022-10-30T00:51:45.232Z,7.30
2022-10-30T00:56:50.104Z,8.48
2022-10-30T01:01:55.498Z,7.25
2022-10-30T01:07:01.004Z,9.48
2022-10-30T01:12:03.869Z,6.95
2022-10-30T01:17:39.200Z,7.72
2022-10-30T01:22:56.094Z,8.18
2022-10-30T01:28:05.843Z,7.40
2022-10-30T01:33:24.690Z,8.45
2022-10-30T01:38:33.003Z,8.15
2022-10-30T01:43:37.775Z,7.53
2022-10-30T01:48:58.862Z,7.07
2022-10-30T01:54:10.139Z,6.82
2022-10-30T01:59:19.061Z,7.57
2022-10-30T02:04:24.336Z,6.78
2022-10-30T02:09:28.343Z,6.65
2022-10-30T02:14:34.313Z,8.52
2022-10-30T02:19:41.116Z,7.35
2022-10-30T02:24:45.467Z,7.20
2022-10-30T02:29:49.723Z,7.43
2022-10-30T02:34:52.475Z,7.25
2022-10-30T02:39:56.598Z,7.82
2022-10-30T02:44:59.611Z,8.05
2022-10-30T02:50:02.434Z,7.05
2022-10-30T02:55:07.350Z,6.93
2022-10-30T03:00:11.819Z,7.70
2022-10-30T03:05:15.738Z,7.10
2022-10-30T03:10:19.881Z,7.13
2022-10-30T03:15:22.712Z,7.88
2022-10-30T03:20:25.535Z,7.47
2022-10-30T03:25:30.855Z,7.35
2022-10-30T03:30:35.411Z,8.00
2022-10-30T03:35:44.693Z,7.55
2022-10-30T03:40:48.990Z,7.28
2022-10-30T03:45:53.850Z,7.70
2022-10-30T03:50:57.807Z,8.27
2022-10-30T03:56:03.483Z,8.07
2022-10-30T04:01:14.721Z,7.78
2022-10-30T04:06:22.755Z,7.85
2022-10-30T04:11:27.009Z,7.22
2022-10-30T04:16:29.843Z,8.43
2022-10-30T04:21:36.065Z,7.18
2022-10-30T04:26:40.266Z,8.43
2022-10-30T04:31:43.088Z,8.27
2022-10-30T04:36:45.891Z,7.75
2022-10-30T04:41:50.341Z,7.93
2022-10-30T04:46:59.920Z,8.18
2022-10-30T04:52:02.714Z,8.00
2022-10-30T04:57:07.079Z,8.38
2022-10-30T05:02:10.589Z,7.60
2022-10-30T05:07:14.206Z,7.72
2022-10-30T05:12:19.468Z,8.75
2022-10-30T05:22:36.599Z,8.15
2022-10-30T05:27:40.796Z,7.80
2022-10-30T05:32:43.838Z,8.05
2022-10-30T05:37:46.644Z,8.65
2022-10-30T05:42:52.440Z,7.63
2022-10-30T05:47:56.612Z,8.27
2022-10-30T05:53:00.590Z,8.20
2022-10-30T05:58:06.318Z,8.07
2022-10-30T06:03:14.503Z,7.82
2022-10-30T06:08:19.760Z,7.70
2022-10-30T06:13:25.956Z,7.65
2022-10-30T06:18:58.356Z,7.50
2022-10-30T06:24:04.240Z,6.82
2022-10-30T06:29:28.609Z,7.40
2022-10-30T06:34:31.587Z,7.18
2022-10-30T06:39:34.404Z,7.05
2022-10-30T06:45:05.292Z,8.32
2022-10-30T06:50:12.446Z,8.38
2022-10-30T06:55:15.878Z,5.45
2022-10-30T07:00:28.579Z,6.10
2022-10-30T07:05:49.591Z,5.93
2022-10-30T07:10:52.634Z,6.38
2022-10-30T07:16:05.395Z,6.13
2022-10-30T07:21:12.549Z,6.80
2022-10-30T07:26:17.120Z,6.78
2022-10-30T07:31:34.952Z,7.70
2022-10-30T07:37:03.946Z,8.07
2022-10-30T07:42:19.312Z,6.57
2022-10-30T07:47:42.596Z,7.00
2022-10-30T07:52:59.504Z,6.82
2022-10-30T07:58:05.631Z,6.90
2022-10-30T08:03:28.493Z,6.97
2022-10-30T08:08:42.084Z,6.65
2022-10-30T08:14:01.564Z,6.35
2022-10-30T08:19:05.939Z,6.50
2022-10-30T08:24:09.334Z,6.72
2022-10-30T08:29:14.915Z,8.00
2022-10-30T08:34:21.569Z,7.75
2022-10-30T08:39:28.463Z,7.00
2022-10-30T08:44:38.718Z,6.70
2022-10-30T08:50:13.122Z,6.85
2022-10-30T08:55:16.307Z,7.22
2022-10-30T09:00:19.621Z,6.50
2022-10-30T09:05:42.146Z,6.32
2022-10-30T09:11:05.780Z,5.32
2022-10-30T09:16:09.290Z,6.03
2022-10-30T09:21:15.937Z,5.65
2022-10-30T09:26:22.246Z,5.88
2022-10-30T09:31:37.231Z,6.18
2022-10-30T09:36:43.947Z,5.60
2022-10-30T09:42:16.235Z,6.25
2022-10-30T09:47:39.388Z,5.30
2022-10-30T09:52:53.197Z,6.03
2022-10-30T09:58:05.245Z,5.60
2022-10-30T10:03:23.544Z,5.07
2022-10-30T10:08:53.144Z,5.22
2022-10-30T10:14:40.846Z,5.28
2022-10-30T10:19:50.991Z,5.07
2022-10-30T10:24:56.404Z,4.97
2022-10-30T10:30:04.479Z,5.43
2022-10-30T10:35:33.590Z,5.07
2022-10-30T10:40:53.443Z,5.60
2022-10-30T10:46:10.909Z,5.20
2022-10-30T10:51:19.071Z,5.07
2022-10-30T10:56:28.964Z,6.55
2022-10-30T11:01:38.214Z,5.53
2022-10-30T11:06:44.744Z,5.68
2022-10-30T11:11:50.195Z,5.47
2022-10-30T11:17:03.373Z,5.47
2022-10-30T11:22:18.157Z,5.53
2022-10-30T11:27:28.403Z,5.38
2022-10-30T11:32:33.453Z,5.70
2022-10-30T11:37:38.100Z,5.60
2022-10-30T11:42:45.065Z,6.85
2022-10-30T11:47:48.530Z,5.65
2022-10-30T11:52:55.173Z,5.53
2022-10-30T11:58:00.876Z,5.82
2022-10-30T12:03:04.679Z,5.57
2022-10-30T12:08:22.535Z,6.30
2022-10-30T12:13:28.147Z,6.10
2022-10-30T12:18:38.124Z,6.35
2022-10-30T12:23:41.599Z,6.07
2022-10-30T12:28:52.296Z,6.07
2022-10-30T12:34:06.229Z,5.53
2022-10-30T12:39:15.199Z,6.00
2022-10-30T12:44:23.286Z,5.88
2022-10-30T12:49:32.216Z,5.75
2022-10-30T12:54:43.012Z,6.53
2022-10-30T12:59:59.453Z,5.10
2022-10-30T13:05:05.299Z,5.75
2022-10-30T13:10:23.048Z,5.97
2022-10-30T13:15:30.891Z,5.88
2022-10-30T13:20:35.715Z,6.80
2022-10-30T13:25:49.340Z,5.47
2022-10-30T13:31:01.521Z,7.15
2022-10-30T13:36:11.670Z,7.43
2022-10-30T13:41:29.431Z,6.60
2022-10-30T13:46:52.372Z,6.38
2022-10-30T13:52:02.332Z,7.50
2022-10-30T13:57:15.645Z,6.07
2022-10-30T14:02:33.606Z,6.03
2022-10-30T14:07:43.812Z,6.25
2022-10-30T14:13:15.048Z,6.22
2022-10-30T14:18:35.588Z,6.30
2022-10-30T14:23:39.505Z,5.93
2022-10-30T14:28:44.590Z,7.03
2022-10-30T14:33:50.546Z,5.55
2022-10-30T14:39:02.152Z,6.50
2022-10-30T14:44:26.269Z,6.27
2022-10-30T14:49:47.486Z,6.18
2022-10-30T14:54:59.664Z,6.95
2022-10-30T15:00:39.781Z,7.30
2022-10-30T15:05:51.419Z,6.72
2022-10-30T15:11:17.637Z,6.47
2022-10-30T15:16:23.806Z,6.57
2022-10-30T15:21:29.777Z,7.30
2022-10-30T15:26:37.148Z,7.22
2022-10-30T15:31:39.947Z,7.55
2022-10-30T15:36:44.060Z,6.93
2022-10-30T15:41:48.988Z,6.95
2022-10-30T15:46:54.719Z,7.30
2022-10-30T15:52:00.791Z,7.00
2022-10-30T15:57:43.197Z,8.57
2022-10-30T16:02:27.894Z,9.70
2022-10-30T16:07:32.362Z,9.15
2022-10-30T16:12:36.455Z,8.05
2022-10-30T16:17:39.341Z,8.40
2022-10-30T16:22:43.695Z,7.97
2022-10-30T16:27:47.460Z,8.23
2022-10-30T16:32:54.544Z,9.18
2022-10-30T16:38:02.595Z,9.50
2022-10-30T16:43:05.606Z,8.65
2022-10-30T16:53:24.223Z,9.07
2022-10-30T16:58:30.684Z,8.80
2022-10-30T17:03:38.245Z,8.63
2022-10-30T17:08:43.957Z,8.85
2022-10-30T17:14:03.057Z,9.00
2022-10-30T17:19:40.351Z,9.10
2022-10-30T17:24:44.504Z,9.20
2022-10-30T17:29:47.339Z,8.32
2022-10-30T17:35:00.476Z,8.52
2022-10-30T17:40:05.693Z,9.82
2022-10-30T17:45:13.429Z,10.38
2022-10-30T17:50:16.247Z,8.52
2022-10-30T17:55:25.686Z,9.50
2022-10-30T18:00:28.519Z,9.85
2022-10-30T18:05:33.678Z,10.32
2022-10-30T18:10:37.823Z,10.05
2022-10-30T18:15:43.756Z,9.60
2022-10-30T18:20:46.529Z,11.10
2022-10-30T18:25:51.653Z,9.60
2022-10-30T18:30:56.761Z,10.30
2022-10-30T18:36:00.387Z,10.52
2022-10-30T18:41:05.644Z,9.00
2022-10-30T18:46:11.270Z,8.02
2022-10-30T18:51:18.030Z,7.20
2022-10-30T18:56:24.031Z,8.00
2022-10-30T19:01:27.011Z,7.28
2022-10-30T19:06:30.291Z,7.07
2022-10-30T19:11:36.350Z,7.05
2022-10-30T19:16:40.356Z,6.88
2022-10-30T19:21:43.290Z,7.70
2022-10-30T19:26:47.451Z,7.80
2022-10-30T19:31:50.284Z,7.07
2022-10-30T19:36:53.108Z,7.22
2022-10-30T19:41:57.628Z,7.43
2022-10-30T19:47:00.464Z,6.25
2022-10-30T19:52:03.255Z,7.15
2022-10-30T19:57:13.250Z,6.28
2022-10-30T20:02:16.200Z,7.63
2022-10-30T20:07:19.039Z,6.57
2022-10-30T20:12:23.305Z,7.00
2022-10-30T20:17:26.078Z,7.72
2022-10-30T20:22:28.900Z,6.25
2022-10-30T20:27:33.160Z,6.82
2022-10-30T20:32:36.010Z,6.90
2022-10-30T20:37:38.895Z,7.82
2022-10-30T20:42:43.767Z,6.97
2022-10-30T20:47:47.631Z,7.53
2022-10-30T20:52:50.474Z,7.32
2022-10-30T20:57:54.597Z,7.18
2022-10-30T21:02:57.366Z,7.57
2022-10-30T21:08:01.128Z,7.85
2022-10-30T21:13:08.782Z,7.07
2022-10-30T21:18:13.617Z,7.25
2022-10-30T21:23:16.334Z,7.05
2022-10-30T21:28:20.519Z,6.28
2022-10-30T21:33:23.303Z,8.00
2022-10-30T21:38:25.995Z,7.47
2022-10-30T21:43:30.179Z,6.65
2022-10-30T21:48:32.894Z,7.18
2022-10-30T21:53:35.775Z,7.13
2022-10-30T21:58:40.016Z,6.53
2022-10-30T22:03:42.858Z,6.57
2022-10-30T22:08:46.653Z,7.20
2022-10-30T22:13:54.599Z,6.18
2022-10-30T22:18:57.761Z,7.47
2022-10-30T22:24:01.264Z,7.53
2022-10-30T22:29:05.688Z,6.65
2022-10-30T22:34:10.882Z,7.18
2022-10-30T22:39:14.887Z,8.82
2022-10-30T22:44:19.750Z,8.32
2022-10-30T22:49:22.863Z,8.23
2022-10-30T22:54:26.098Z,8.85
2022-10-30T22:59:30.754Z,8.95
2022-10-30T23:04:33.773Z,9.43
2022-10-30T23:09:36.821Z,10.07
2022-10-30T23:14:41.342Z,10.05
2022-10-30T23:19:44.568Z,10.75
2022-10-30T23:24:49.074Z,11.38
2022-10-30T23:29:53.678Z,10.82
2022-10-30T23:34:56.965Z,10.70
2022-10-30T23:39:59.966Z,11.00
2022-10-30T23:45:06.398Z,11.23
2022-10-30T23:50:10.295Z,11.18
2022-10-30T23:55:13.355Z,11.75
